createdAt,value
2022-07-29T00:02:11.117Z,94236.72
2022-07-29T00:04:38.422Z,94225.91
2022-07-29T00:07:05.678Z,94214.72
2022-07-29T00:09:32.898Z,94214.81
2022-07-29T00:12:08.752Z,94204.22
2022-07-29T00:14:36.609Z,94204.16
2022-07-29T00:17:03.218Z,94184.75
2022-07-29T00:19:29.825Z,94188.19
2022-07-29T00:21:59.893Z,94193.56
2022-07-29T00:24:26.493Z,94193.56
2022-07-29T00:26:53.559Z,94194.34
2022-07-29T00:29:35.751Z,94186.00
2022-07-29T00:32:03.461Z,94186.25
2022-07-29T00:34:49.224Z,94188.75
2022-07-29T00:37:15.885Z,94197.66
2022-07-29T00:39:42.532Z,94191.31
2022-07-29T00:42:10.174Z,94183.25
2022-07-29T00:44:41.286Z,94187.41
2022-07-29T00:47:08.660Z,94183.56
2022-07-29T00:49:35.884Z,94163.34
2022-07-29T00:52:04.253Z,94172.78
2022-07-29T00:54:31.291Z,94165.22
2022-07-29T00:57:01.054Z,94173.97
2022-07-29T00:59:35.097Z,94173.13
2022-07-29T01:02:03.957Z,94174.09
2022-07-29T01:04:32.188Z,94170.94
2022-07-29T01:07:01.740Z,94158.63
2022-07-29T01:09:35.974Z,94165.09
2022-07-29T01:12:22.365Z,94155.53
2022-07-29T01:14:50.339Z,94150.94
2022-07-29T01:17:33.267Z,94152.22
2022-07-29T01:20:18.785Z,94141.19
2022-07-29T01:23:18.973Z,94159.25
2022-07-29T01:26:13.355Z,94140.19
2022-07-29T01:29:19.294Z,94144.91
2022-07-29T01:31:59.071Z,94146.09
2022-07-29T01:34:59.291Z,94149.94
2022-07-29T01:37:38.832Z,94148.22
2022-07-29T01:40:10.024Z,94140.22
2022-07-29T01:42:37.884Z,94140.56
2022-07-29T01:45:11.629Z,94140.94
2022-07-29T01:48:03.834Z,94139.38
2022-07-29T01:50:36.008Z,94136.66
2022-07-29T01:53:10.391Z,94129.00
2022-07-29T01:55:40.938Z,94129.56
2022-07-29T01:58:08.389Z,94128.13
2022-07-29T02:00:35.949Z,94130.75
2022-07-29T02:03:08.322Z,94121.34
2022-07-29T02:05:36.889Z,94131.38
2022-07-29T02:08:06.331Z,94127.72
2022-07-29T02:10:35.515Z,94128.47
2022-07-29T02:13:03.981Z,94131.47
2022-07-29T02:15:33.809Z,94137.69
2022-07-29T02:18:09.232Z,94129.50
2022-07-29T02:20:37.376Z,94130.34
2022-07-29T02:23:05.693Z,94130.00
2022-07-29T02:25:37.430Z,94113.91
2022-07-29T02:28:07.220Z,94126.59
2022-07-29T02:30:34.875Z,94126.34
2022-07-29T02:33:02.895Z,94130.69
2022-07-29T02:35:34.950Z,94126.25
2022-07-29T02:38:22.596Z,94116.53
2022-07-29T02:40:49.681Z,94115.91
2022-07-29T02:43:17.521Z,94117.88
2022-07-29T02:45:45.740Z,94114.47
2022-07-29T02:48:17.305Z,94113.78
2022-07-29T02:50:58.969Z,94110.72
2022-07-29T02:53:27.578Z,94129.38
2022-07-29T02:56:05.522Z,94128.25
2022-07-29T02:58:35.285Z,94129.78
2022-07-29T03:01:29.905Z,94124.50
2022-07-29T03:03:57.389Z,94121.47
2022-07-29T03:06:37.935Z,94117.97
2022-07-29T03:09:12.517Z,94125.13
2022-07-29T03:11:49.828Z,94129.63
2022-07-29T03:14:21.532Z,94121.78
2022-07-29T03:16:49.627Z,94111.91
2022-07-29T03:19:16.698Z,94116.19
2022-07-29T03:21:43.370Z,94112.41
2022-07-29T03:24:10.817Z,94108.66
2022-07-29T03:26:37.910Z,94099.38
2022-07-29T03:29:04.493Z,94101.97
2022-07-29T03:31:32.151Z,94104.63
2022-07-29T03:34:00.355Z,94112.78
2022-07-29T03:36:27.092Z,94102.47
2022-07-29T03:38:54.289Z,94114.09
2022-07-29T03:41:24.001Z,94104.78
2022-07-29T03:43:52.505Z,94105.91
2022-07-29T03:46:22.192Z,94094.69
2022-07-29T03:48:53.903Z,94105.31
2022-07-29T03:51:33.174Z,94111.28
2022-07-29T03:54:07.712Z,94091.47
2022-07-29T03:56:41.065Z,94104.31
2022-07-29T03:59:08.909Z,94103.03
2022-07-29T04:01:36.421Z,94109.16
2022-07-29T04:04:04.223Z,94104.72
2022-07-29T04:06:39.141Z,94108.91
2022-07-29T04:09:05.807Z,94090.34
2022-07-29T04:12:02.556Z,94108.75
2022-07-29T04:14:24.303Z,94124.66
2022-07-29T04:16:51.003Z,94119.63
2022-07-29T04:19:17.593Z,94132.22
2022-07-29T04:21:46.139Z,94119.97
2022-07-29T04:24:12.957Z,94135.72
2022-07-29T04:26:39.730Z,94134.19
2022-07-29T04:29:06.323Z,94135.72
2022-07-29T04:31:32.973Z,94140.31
2022-07-29T04:33:59.602Z,94146.00
2022-07-29T04:36:29.544Z,94147.97
2022-07-29T04:38:56.596Z,94145.78
2022-07-29T04:41:23.332Z,94143.88
2022-07-29T04:43:50.350Z,94153.00
2022-07-29T04:46:18.752Z,94143.19
2022-07-29T04:48:48.773Z,94147.31
2022-07-29T04:51:16.183Z,94156.56
2022-07-29T04:53:42.836Z,94144.47
2022-07-29T04:56:09.691Z,94140.03
2022-07-29T04:58:37.055Z,94152.28
2022-07-29T05:01:04.623Z,94151.25
2022-07-29T05:03:31.325Z,94153.84
2022-07-29T05:05:57.962Z,94151.47
2022-07-29T05:08:24.735Z,94161.75
2022-07-29T05:10:51.467Z,94154.94
2022-07-29T05:13:18.214Z,94150.91
2022-07-29T05:15:44.906Z,94153.72
2022-07-29T05:18:11.604Z,94160.75
2022-07-29T05:20:38.299Z,94167.72
2022-07-29T05:23:04.968Z,94147.97
2022-07-29T05:25:43.917Z,94167.03
2022-07-29T05:28:12.575Z,94167.03
2022-07-29T05:30:39.472Z,94166.81
2022-07-29T05:33:06.261Z,94172.88
2022-07-29T05:35:32.973Z,94185.47
2022-07-29T05:37:59.567Z,94178.97
2022-07-29T05:40:26.191Z,94179.38
2022-07-29T05:42:52.825Z,94186.03
2022-07-29T05:45:19.434Z,94188.44
2022-07-29T05:47:46.540Z,94179.22
2022-07-29T05:50:13.302Z,94192.00
2022-07-29T05:52:40.020Z,94193.38
2022-07-29T05:55:06.931Z,94195.56
2022-07-29T05:57:33.589Z,94191.69
2022-07-29T06:00:00.249Z,94190.81
2022-07-29T06:02:26.989Z,94207.31
2022-07-29T06:04:53.941Z,94204.69
2022-07-29T06:07:20.897Z,94206.75
2022-07-29T06:09:47.534Z,94208.34
2022-07-29T06:12:14.193Z,94206.13
2022-07-29T06:14:41.123Z,94200.09
2022-07-29T06:17:07.776Z,94211.59
2022-07-29T06:19:37.583Z,94208.50
2022-07-29T06:22:04.930Z,94215.69
2022-07-29T06:24:31.736Z,94208.59
2022-07-29T06:26:58.547Z,94225.38
2022-07-29T06:29:25.177Z,94224.69
2022-07-29T06:31:51.934Z,94221.81
2022-07-29T06:34:18.847Z,94223.56
2022-07-29T06:36:46.429Z,94216.13
2022-07-29T06:39:13.477Z,94218.16
2022-07-29T06:41:40.242Z,94220.13
2022-07-29T06:44:10.121Z,94227.78
2022-07-29T06:46:37.569Z,94225.56
2022-07-29T06:49:05.428Z,94228.53
2022-07-29T06:51:32.255Z,94233.22
2022-07-29T06:54:02.664Z,94231.00
2022-07-29T06:56:39.508Z,94237.06
2022-07-29T06:59:08.483Z,94233.22
2022-07-29T07:01:36.859Z,94238.56
2022-07-29T07:04:03.594Z,94240.47
2022-07-29T07:06:30.380Z,94236.19
2022-07-29T07:08:56.956Z,94235.19
2022-07-29T07:11:23.706Z,94230.22
2022-07-29T07:13:50.517Z,94245.91
2022-07-29T07:16:17.563Z,94246.41
2022-07-29T07:18:46.104Z,94244.13
2022-07-29T07:21:13.294Z,94246.75
2022-07-29T07:23:46.241Z,94244.38
2022-07-29T07:26:12.837Z,94243.25
2022-07-29T07:28:39.459Z,94248.19
2022-07-29T07:31:06.216Z,94246.69
2022-07-29T07:33:32.829Z,94241.13
2022-07-29T07:35:59.526Z,94246.91
2022-07-29T07:38:26.090Z,94255.34
2022-07-29T07:40:52.705Z,94245.94
2022-07-29T07:43:19.303Z,94245.69
2022-07-29T07:45:45.954Z,94244.44
2022-07-29T07:48:12.553Z,94252.13
2022-07-29T07:50:39.161Z,94254.81
2022-07-29T07:53:06.002Z,94242.97
2022-07-29T07:56:00.015Z,94252.16
2022-07-29T07:58:19.478Z,94241.72
2022-07-29T08:00:46.162Z,94246.88
2022-07-29T08:03:17.112Z,94245.59
2022-07-29T08:05:44.864Z,94245.88
2022-07-29T08:08:11.452Z,94240.81
2022-07-29T08:10:52.949Z,94245.91
2022-07-29T08:13:22.046Z,94244.03
2022-07-29T08:15:57.737Z,94241.81
2022-07-29T08:18:31.758Z,94238.03
2022-07-29T08:20:59.739Z,94240.38
2022-07-29T08:23:31.595Z,94239.81
2022-07-29T08:26:00.952Z,94241.91
2022-07-29T08:28:27.561Z,94239.50
2022-07-29T08:30:54.145Z,94242.38
2022-07-29T08:33:20.721Z,94244.97
2022-07-29T08:35:47.331Z,94243.03
2022-07-29T08:38:14.543Z,94246.97
2022-07-29T08:40:41.263Z,94245.56
2022-07-29T08:43:09.015Z,94249.41
2022-07-29T08:45:47.730Z,94241.09
2022-07-29T08:48:17.026Z,94253.81
2022-07-29T08:50:46.337Z,94246.03
2022-07-29T08:53:15.740Z,94250.13
2022-07-29T08:55:50.620Z,94254.13
2022-07-29T08:58:17.975Z,94247.00
2022-07-29T09:00:55.440Z,94240.56
2022-07-29T09:03:26.250Z,94242.56
2022-07-29T09:05:53.718Z,94242.22
2022-07-29T09:08:21.061Z,94244.59
2022-07-29T09:10:47.999Z,94241.25
2022-07-29T09:13:14.651Z,94246.28
2022-07-29T09:15:41.266Z,94239.59
2022-07-29T09:18:07.863Z,94240.81
2022-07-29T09:21:11.323Z,94238.91
2022-07-29T09:23:37.909Z,94235.91
2022-07-29T09:26:06.917Z,94239.38
2022-07-29T09:28:33.505Z,94242.88
2022-07-29T09:31:00.201Z,94249.38
2022-07-29T09:33:35.553Z,94247.91
2022-07-29T09:36:07.236Z,94238.44
2022-07-29T09:38:34.656Z,94240.75
2022-07-29T09:41:05.998Z,94246.13
2022-07-29T09:43:33.914Z,94243.09
2022-07-29T09:46:13.654Z,94237.75
2022-07-29T09:48:40.450Z,94238.56
2022-07-29T09:51:20.264Z,94238.56
2022-07-29T09:53:48.015Z,94237.00
2022-07-29T09:56:15.269Z,94237.38
2022-07-29T09:58:41.840Z,94233.97
2022-07-29T10:01:08.530Z,94229.00
2022-07-29T10:03:52.791Z,94231.69
2022-07-29T10:06:19.420Z,94224.81
2022-07-29T10:08:46.024Z,94227.50
2022-07-29T10:11:14.913Z,94218.69
2022-07-29T10:13:42.948Z,94230.09
2022-07-29T10:16:10.147Z,94219.41
2022-07-29T10:18:39.548Z,94219.03
2022-07-29T10:21:06.728Z,94210.66
2022-07-29T10:23:46.807Z,94215.28
2022-07-29T10:26:15.648Z,94212.66
2022-07-29T10:28:42.326Z,94211.13
2022-07-29T10:31:20.222Z,94213.00
2022-07-29T10:34:13.205Z,94209.59
2022-07-29T10:37:00.711Z,94201.94
2022-07-29T10:39:44.312Z,94203.78
2022-07-29T10:42:33.373Z,94203.34
2022-07-29T10:45:02.816Z,94199.09
2022-07-29T10:47:31.679Z,94206.66
2022-07-29T10:50:01.337Z,94197.06
2022-07-29T10:52:59.179Z,94188.66
2022-07-29T10:55:39.325Z,94192.75
2022-07-29T10:58:15.736Z,94195.34
2022-07-29T11:00:45.406Z,94196.28
2022-07-29T11:03:50.302Z,94217.94
2022-07-29T11:06:28.002Z,94220.25
2022-07-29T11:09:37.742Z,94226.16
2022-07-29T11:12:37.252Z,94225.09
2022-07-29T11:15:13.589Z,94232.66
2022-07-29T11:17:55.376Z,94228.97
2022-07-29T11:20:43.653Z,94229.94
2022-07-29T11:23:34.090Z,94212.16
2022-07-29T11:26:10.829Z,94212.84
2022-07-29T11:28:54.594Z,94198.16
2022-07-29T11:31:34.400Z,94204.03
2022-07-29T11:34:20.791Z,94212.84
2022-07-29T11:37:06.225Z,94213.63
2022-07-29T11:39:36.228Z,94220.03
2022-07-29T11:42:28.523Z,94221.78
2022-07-29T11:45:41.580Z,94212.41
2022-07-29T11:48:27.751Z,94216.66
2022-07-29T11:50:48.367Z,94215.47
2022-07-29T11:53:15.360Z,94227.94
2022-07-29T11:58:30.602Z,94251.13
2022-07-29T12:00:58.529Z,94249.44
2022-07-29T12:03:34.228Z,94262.84
2022-07-29T12:06:03.607Z,94275.28
2022-07-29T12:08:30.881Z,94270.69
2022-07-29T12:10:57.683Z,94274.03
2022-07-29T12:13:37.607Z,94264.47
2022-07-29T12:16:05.388Z,94269.00
2022-07-29T12:18:32.438Z,94302.34
2022-07-29T12:21:04.671Z,94301.69
2022-07-29T12:23:35.061Z,94284.97
2022-07-29T12:26:10.949Z,94270.06
2022-07-29T12:28:49.663Z,94257.78
2022-07-29T12:31:44.102Z,94257.53
2022-07-29T12:34:03.552Z,94261.63
2022-07-29T12:36:33.496Z,94273.25
2022-07-29T12:39:00.254Z,94259.63
2022-07-29T12:41:29.754Z,94256.28
2022-07-29T12:43:57.161Z,94246.53
2022-07-29T12:46:23.985Z,94230.25
2022-07-29T12:48:59.560Z,94256.91
2022-07-29T12:51:34.256Z,94249.41
2022-07-29T12:54:11.528Z,94251.50
2022-07-29T12:56:43.496Z,94248.28
2022-07-29T12:59:21.983Z,94275.91
2022-07-29T13:01:51.131Z,94263.03
2022-07-29T13:04:30.314Z,94269.59
2022-07-29T13:07:55.511Z,94252.47
2022-07-29T13:10:22.117Z,94280.59
2022-07-29T13:13:14.016Z,94283.56
2022-07-29T13:15:43.271Z,94262.03
2022-07-29T13:18:29.182Z,94276.00
2022-07-29T13:20:56.757Z,94256.56
2022-07-29T13:23:23.777Z,94275.31
2022-07-29T13:25:50.417Z,94263.22
2022-07-29T13:28:17.532Z,94274.38
2022-07-29T13:30:44.907Z,94275.63
2022-07-29T13:33:11.837Z,94268.06
2022-07-29T13:35:39.942Z,94259.84
2022-07-29T13:38:06.975Z,94261.22
2022-07-29T13:40:36.344Z,94253.00
2022-07-29T13:43:03.030Z,94251.84
2022-07-29T13:45:30.852Z,94239.41
2022-07-29T13:47:57.484Z,94240.03
2022-07-29T13:50:24.178Z,94234.06
2022-07-29T13:52:51.908Z,94157.03
2022-07-29T13:55:18.572Z,94185.72
2022-07-29T13:57:45.254Z,94207.94
2022-07-29T14:00:13.137Z,94205.66
2022-07-29T14:02:40.114Z,94207.66
2022-07-29T14:05:08.676Z,94208.50
2022-07-29T14:07:35.570Z,94212.25
2022-07-29T14:10:02.224Z,94223.53
2022-07-29T14:12:29.117Z,94225.78
2022-07-29T14:14:55.697Z,94238.63
2022-07-29T14:17:22.906Z,94246.16
2022-07-29T14:19:49.693Z,94256.31
2022-07-29T14:22:16.395Z,94251.38
2022-07-29T14:24:43.094Z,94261.47
2022-07-29T14:27:09.764Z,94240.44
2022-07-29T14:29:38.735Z,94240.88
2022-07-29T14:32:11.396Z,94236.00
2022-07-29T14:34:39.066Z,94245.19
2022-07-29T14:37:06.769Z,94243.03
2022-07-29T14:39:36.075Z,94216.28
2022-07-29T14:42:06.449Z,94234.03
2022-07-29T14:44:33.306Z,94234.13
2022-07-29T14:47:01.459Z,94211.31
2022-07-29T14:49:35.386Z,94234.13
2022-07-29T14:52:02.104Z,94245.50
2022-07-29T14:54:28.796Z,94243.91
2022-07-29T14:56:58.162Z,94250.25
2022-07-29T14:59:25.493Z,94253.94
2022-07-29T15:01:52.136Z,94244.41
2022-07-29T15:04:18.727Z,94243.56
2022-07-29T15:06:45.440Z,94248.56
2022-07-29T15:09:12.073Z,94244.81
2022-07-29T15:11:39.003Z,94241.41
2022-07-29T15:14:06.779Z,94230.63
2022-07-29T15:16:36.288Z,94247.84
2022-07-29T15:19:03.284Z,94254.31
2022-07-29T15:21:29.986Z,94250.03
2022-07-29T15:23:56.590Z,94250.34
2022-07-29T15:26:23.284Z,94249.50
2022-07-29T15:28:49.859Z,94242.28
2022-07-29T15:31:16.537Z,94249.84
2022-07-29T15:33:43.196Z,94237.25
2022-07-29T15:36:09.834Z,94243.75
2022-07-29T15:38:41.897Z,94250.91
2022-07-29T15:41:09.247Z,94247.91
2022-07-29T15:43:36.444Z,94237.09
2022-07-29T15:46:21.775Z,94252.38
2022-07-29T15:48:48.517Z,94255.34
2022-07-29T15:51:15.342Z,94244.00
2022-07-29T15:53:41.973Z,94253.13
2022-07-29T15:56:08.566Z,94256.59
2022-07-29T15:58:35.643Z,94259.75
2022-07-29T16:01:02.613Z,94263.22
2022-07-29T16:03:29.950Z,94270.81
2022-07-29T16:05:57.245Z,94265.53
2022-07-29T16:08:23.907Z,94275.41
2022-07-29T16:10:50.670Z,94264.69
2022-07-29T16:13:18.993Z,94268.53
2022-07-29T16:16:02.317Z,94260.03
2022-07-29T16:18:30.504Z,94260.63
2022-07-29T16:20:57.793Z,94257.09
2022-07-29T16:23:25.283Z,94263.34
2022-07-29T16:26:00.602Z,94260.88
2022-07-29T16:28:28.408Z,94263.13
2022-07-29T16:30:55.059Z,94266.63
2022-07-29T16:33:21.795Z,94260.47
2022-07-29T16:35:48.362Z,94272.66
2022-07-29T16:38:15.464Z,94263.03
2022-07-29T16:40:42.641Z,94266.63
2022-07-29T16:43:09.263Z,94264.63
2022-07-29T16:45:38.540Z,94273.09
2022-07-29T16:48:12.732Z,94285.63
2022-07-29T16:50:40.054Z,94285.56
2022-07-29T16:53:06.814Z,94279.31
2022-07-29T16:55:33.685Z,94267.25
2022-07-29T16:58:00.558Z,94291.13
2022-07-29T17:00:27.321Z,94292.00
2022-07-29T17:02:54.124Z,94290.25
2022-07-29T17:05:20.722Z,94296.22
2022-07-29T17:07:48.403Z,94283.88
2022-07-29T17:10:14.972Z,94297.91
2022-07-29T17:12:41.653Z,94291.44
2022-07-29T17:15:10.748Z,94296.13
2022-07-29T17:17:39.219Z,94278.47
2022-07-29T17:20:21.610Z,94292.28
2022-07-29T17:22:48.618Z,94279.94
2022-07-29T17:25:21.057Z,94284.63
2022-07-29T17:27:50.501Z,94292.03
2022-07-29T17:30:17.829Z,94301.84
2022-07-29T17:32:44.521Z,94310.22
2022-07-29T17:35:29.709Z,94304.47
2022-07-29T17:37:56.554Z,94307.56
2022-07-29T17:40:23.384Z,94305.25
2022-07-29T17:42:50.341Z,94313.19
2022-07-29T17:45:16.938Z,94298.25
2022-07-29T17:47:44.579Z,94289.41
2022-07-29T17:50:11.243Z,94302.09
2022-07-29T17:52:39.172Z,94295.25
2022-07-29T17:55:07.290Z,94306.28
2022-07-29T17:57:34.208Z,94300.22
2022-07-29T18:00:00.781Z,94291.19
2022-07-29T18:02:28.401Z,94301.50
2022-07-29T18:04:55.390Z,94299.97
2022-07-29T18:07:21.989Z,94302.22
2022-07-29T18:09:48.587Z,94301.44
2022-07-29T18:12:15.442Z,94307.03
2022-07-29T18:14:42.154Z,94302.78
2022-07-29T18:17:08.805Z,94311.03
2022-07-29T18:19:35.437Z,94317.44
2022-07-29T18:22:05.151Z,94320.41
2022-07-29T18:24:32.455Z,94323.84
2022-07-29T18:26:59.336Z,94318.13
2022-07-29T18:29:28.864Z,94328.59
2022-07-29T18:31:55.837Z,94327.31
2022-07-29T18:34:22.390Z,94328.44
2022-07-29T18:36:48.989Z,94329.09
2022-07-29T18:39:21.216Z,94327.47
2022-07-29T18:41:50.634Z,94325.50
2022-07-29T18:44:18.920Z,94334.09
2022-07-29T18:46:47.919Z,94329.50
2022-07-29T18:49:15.001Z,94336.22
2022-07-29T18:51:41.669Z,94340.31
2022-07-29T18:54:09.234Z,94341.31
2022-07-29T18:56:36.417Z,94337.47
2022-07-29T18:59:03.381Z,94331.34
2022-07-29T19:01:31.871Z,94339.25
2022-07-29T19:03:58.780Z,94341.91
2022-07-29T19:06:26.058Z,94340.78
2022-07-29T19:08:53.002Z,94341.44
2022-07-29T19:11:19.568Z,94345.47
2022-07-29T19:13:46.199Z,94350.28
2022-07-29T19:16:14.117Z,94356.34
2022-07-29T19:18:41.585Z,94351.41
2022-07-29T19:21:08.206Z,94359.34
2022-07-29T19:24:05.185Z,94357.78
2022-07-29T19:26:21.524Z,94370.13
2022-07-29T19:28:49.060Z,94370.78
2022-07-29T19:31:16.069Z,94382.63
2022-07-29T19:33:42.882Z,94392.09
2022-07-29T19:36:09.460Z,94406.06
2022-07-29T19:38:38.213Z,94423.09
2022-07-29T19:41:06.253Z,94426.19
2022-07-29T19:43:51.687Z,94424.66
2022-07-29T19:46:20.417Z,94405.53
2022-07-29T19:48:47.227Z,94385.09
2022-07-29T19:51:14.050Z,94391.03
2022-07-29T19:53:40.634Z,94387.53
2022-07-29T19:56:08.985Z,94387.19
2022-07-29T19:58:36.084Z,94381.16
2022-07-29T20:01:02.909Z,94376.31
2022-07-29T20:03:39.788Z,94368.06
2022-07-29T20:06:07.472Z,94369.44
2022-07-29T20:08:34.169Z,94363.94
2022-07-29T20:11:00.905Z,94375.78
2022-07-29T20:13:27.541Z,94376.22
2022-07-29T20:15:54.198Z,94372.03
2022-07-29T20:18:20.875Z,94385.25
2022-07-29T20:20:49.158Z,94382.94
2022-07-29T20:23:16.504Z,94388.13
2022-07-29T20:25:43.088Z,94384.59
2022-07-29T20:28:09.835Z,94384.53
2022-07-29T20:30:38.573Z,94389.34
2022-07-29T20:33:05.672Z,94389.34
2022-07-29T20:35:32.612Z,94382.22
2022-07-29T20:38:00.375Z,94380.69
2022-07-29T20:40:28.984Z,94382.97
2022-07-29T20:42:55.728Z,94383.84
2022-07-29T20:45:23.659Z,94387.25
2022-07-29T20:47:51.850Z,94387.25
2022-07-29T20:50:20.500Z,94390.22
2022-07-29T20:52:51.038Z,94381.97
2022-07-29T20:55:17.613Z,94389.47
2022-07-29T20:57:44.278Z,94397.28
2022-07-29T21:00:11.334Z,94387.31
2022-07-29T21:02:38.006Z,94386.41
2022-07-29T21:05:05.412Z,94387.44
2022-07-29T21:07:32.062Z,94394.56
2022-07-29T21:09:58.628Z,94387.31
2022-07-29T21:12:25.273Z,94400.09
2022-07-29T21:14:52.240Z,94409.56
2022-07-29T21:17:21.228Z,94422.94
2022-07-29T21:19:52.409Z,94399.28
2022-07-29T21:22:21.645Z,94403.13
2022-07-29T21:24:49.201Z,94407.53
2022-07-29T21:27:34.742Z,94414.34
2022-07-29T21:30:01.375Z,94420.72
2022-07-29T21:32:29.908Z,94417.72
2022-07-29T21:34:57.896Z,94412.38
2022-07-29T21:37:24.748Z,94411.59
2022-07-29T21:39:51.670Z,94409.19
2022-07-29T21:42:18.492Z,94406.09
2022-07-29T21:44:45.141Z,94403.81
2022-07-29T21:47:11.911Z,94409.75
2022-07-29T21:49:39.041Z,94405.56
2022-07-29T21:52:06.069Z,94411.59
2022-07-29T21:54:34.657Z,94402.19
2022-07-29T21:57:01.347Z,94405.13
2022-07-29T21:59:27.995Z,94401.72
2022-07-29T22:01:54.701Z,94397.88
2022-07-29T22:04:21.446Z,94394.69
2022-07-29T22:06:48.138Z,94398.78
2022-07-29T22:09:14.792Z,94392.66
2022-07-29T22:11:42.000Z,94395.94
2022-07-29T22:14:08.628Z,94391.75
2022-07-29T22:16:35.414Z,94397.69
2022-07-29T22:19:03.926Z,94390.78
2022-07-29T22:21:30.763Z,94390.00
2022-07-29T22:23:57.429Z,94392.84
2022-07-29T22:26:24.034Z,94393.94
2022-07-29T22:28:50.639Z,94380.66
2022-07-29T22:31:17.335Z,94388.13
2022-07-29T22:33:43.994Z,94385.84
2022-07-29T22:36:10.761Z,94385.72
2022-07-29T22:38:37.491Z,94381.88
2022-07-29T22:41:04.147Z,94376.84
2022-07-29T22:43:30.761Z,94371.78
2022-07-29T22:45:57.395Z,94377.06
2022-07-29T22:48:24.079Z,94372.88
2022-07-29T22:50:50.964Z,94372.88
2022-07-29T22:53:17.595Z,94369.81
2022-07-29T22:55:45.457Z,94374.63
2022-07-29T22:58:12.117Z,94368.50
2022-07-29T23:00:38.794Z,94370.34
2022-07-29T23:03:05.383Z,94370.69
2022-07-29T23:05:32.737Z,94377.50
2022-07-29T23:07:59.765Z,94360.47
2022-07-29T23:10:26.385Z,94366.09
2022-07-29T23:12:53.154Z,94355.84
2022-07-29T23:15:20.072Z,94354.34
2022-07-29T23:17:46.647Z,94360.03
2022-07-29T23:20:14.808Z,94366.31
2022-07-29T23:22:41.694Z,94369.59
2022-07-29T23:25:08.780Z,94358.28
2022-07-29T23:27:35.426Z,94365.75
2022-07-29T23:30:02.862Z,94361.16
2022-07-29T23:32:29.569Z,94361.91
2022-07-29T23:34:56.238Z,94359.81
2022-07-29T23:37:22.967Z,94341.91
2022-07-29T23:39:49.639Z,94353.56
2022-07-29T23:42:16.224Z,94348.94
2022-07-29T23:44:43.063Z,94343.13
2022-07-29T23:47:09.849Z,94335.97
2022-07-29T23:49:36.455Z,94331.56
2022-07-29T23:52:03.310Z,94335.91
2022-07-29T23:54:29.888Z,94325.16
2022-07-29T23:56:57.769Z,94337.78
2022-07-29T23:59:24.939Z,94332.59
